sensor_id;sensor_type;location;lat;lon;timestamp;temperature;humidity
29855;DHT22;16733;48.738;9.106;2022-07-23T00:10:15;24.20;58.40
29855;DHT22;16733;48.738;9.106;2022-07-23T00:16:03;24.10;58.60
29855;DHT22;16733;48.738;9.106;2022-07-23T00:18:29;24.00;58.70
29855;DHT22;16733;48.738;9.106;2022-07-23T00:24:17;24.00;58.70
29855;DHT22;16733;48.738;9.106;2022-07-23T00:26:42;24.00;58.80
29855;DHT22;16733;48.738;9.106;2022-07-23T00:29:08;23.90;58.80
29855;DHT22;16733;48.738;9.106;2022-07-23T00:34:55;23.80;58.90
29855;DHT22;16733;48.738;9.106;2022-07-23T00:37:20;23.60;59.30
29855;DHT22;16733;48.738;9.106;2022-07-23T00:39:46;23.20;59.90
29855;DHT22;16733;48.738;9.106;2022-07-23T00:42:12;22.70;60.90
29855;DHT22;16733;48.738;9.106;2022-07-23T00:48:00;21.70;63.40
29855;DHT22;16733;48.738;9.106;2022-07-23T00:50:26;21.40;64.20
29855;DHT22;16733;48.738;9.106;2022-07-23T00:59:38;21.00;66.00
29855;DHT22;16733;48.738;9.106;2022-07-23T01:02:04;21.00;66.00
29855;DHT22;16733;48.738;9.106;2022-07-23T01:07:52;21.10;66.80
29855;DHT22;16733;48.738;9.106;2022-07-23T01:10:18;21.20;66.60
29855;DHT22;16733;48.738;9.106;2022-07-23T01:13:09;21.30;66.50
29855;DHT22;16733;48.738;9.106;2022-07-23T01:18:57;21.40;66.80
29855;DHT22;16733;48.738;9.106;2022-07-23T01:21:24;21.50;66.70
29855;DHT22;16733;48.738;9.106;2022-07-23T01:23:50;21.50;67.50
29855;DHT22;16733;48.738;9.106;2022-07-23T01:26:15;21.60;66.80
29855;DHT22;16733;48.738;9.106;2022-07-23T01:28:42;21.60;66.70
29855;DHT22;16733;48.738;9.106;2022-07-23T01:31:08;21.70;66.70
29855;DHT22;16733;48.738;9.106;2022-07-23T01:33:33;21.80;66.70
29855;DHT22;16733;48.738;9.106;2022-07-23T01:39:21;21.90;66.90
29855;DHT22;16733;48.738;9.106;2022-07-23T01:41:47;21.80;66.80
29855;DHT22;16733;48.738;9.106;2022-07-23T01:47:35;21.50;67.30
29855;DHT22;16733;48.738;9.106;2022-07-23T01:50:00;21.50;67.50
29855;DHT22;16733;48.738;9.106;2022-07-23T01:55:48;21.50;67.80
29855;DHT22;16733;48.738;9.106;2022-07-23T01:58:14;21.50;67.80
29855;DHT22;16733;48.738;9.106;2022-07-23T02:00:39;21.50;67.90
29855;DHT22;16733;48.738;9.106;2022-07-23T02:06:27;21.60;68.10
29855;DHT22;16733;48.738;9.106;2022-07-23T02:08:52;21.60;68.00
29855;DHT22;16733;48.738;9.106;2022-07-23T02:14:40;21.70;68.00
29855;DHT22;16733;48.738;9.106;2022-07-23T02:17:05;21.70;67.90
29855;DHT22;16733;48.738;9.106;2022-07-23T02:22:53;21.60;68.10
29855;DHT22;16733;48.738;9.106;2022-07-23T02:25:19;21.60;68.20
29855;DHT22;16733;48.738;9.106;2022-07-23T02:27:44;21.60;68.20
29855;DHT22;16733;48.738;9.106;2022-07-23T02:30:10;21.60;68.20
29855;DHT22;16733;48.738;9.106;2022-07-23T02:32:36;21.60;68.20
29855;DHT22;16733;48.738;9.106;2022-07-23T02:35:03;21.60;68.40
29855;DHT22;16733;48.738;9.106;2022-07-23T02:37:28;21.60;68.50
29855;DHT22;16733;48.738;9.106;2022-07-23T02:39:54;21.60;68.40
29855;DHT22;16733;48.738;9.106;2022-07-23T02:42:20;21.70;68.50
29855;DHT22;16733;48.738;9.106;2022-07-23T02:44:45;21.60;68.50
29855;DHT22;16733;48.738;9.106;2022-07-23T02:47:11;21.60;68.50
29855;DHT22;16733;48.738;9.106;2022-07-23T02:49:36;21.60;68.60
29855;DHT22;16733;48.738;9.106;2022-07-23T02:52:02;21.60;68.60
29855;DHT22;16733;48.738;9.106;2022-07-23T02:54:28;21.50;68.60
29855;DHT22;16733;48.738;9.106;2022-07-23T02:56:53;21.50;68.80
29855;DHT22;16733;48.738;9.106;2022-07-23T03:02:41;21.50;68.80
29855;DHT22;16733;48.738;9.106;2022-07-23T03:05:10;21.50;68.80
29855;DHT22;16733;48.738;9.106;2022-07-23T03:07:35;21.50;68.80
29855;DHT22;16733;48.738;9.106;2022-07-23T03:10:01;21.60;68.80
29855;DHT22;16733;48.738;9.106;2022-07-23T03:12:27;21.60;68.70
29855;DHT22;16733;48.738;9.106;2022-07-23T03:14:52;21.70;68.80
29855;DHT22;16733;48.738;9.106;2022-07-23T03:17:18;21.70;68.80
29855;DHT22;16733;48.738;9.106;2022-07-23T03:19:43;21.70;68.70
29855;DHT22;16733;48.738;9.106;2022-07-23T03:25:31;21.80;68.50
29855;DHT22;16733;48.738;9.106;2022-07-23T03:27:57;21.80;68.50
29855;DHT22;16733;48.738;9.106;2022-07-23T03:33:44;21.80;68.40
29855;DHT22;16733;48.738;9.106;2022-07-23T03:36:10;21.90;68.50
29855;DHT22;16733;48.738;9.106;2022-07-23T03:38:36;21.90;68.40
29855;DHT22;16733;48.738;9.106;2022-07-23T03:41:01;21.90;68.30
29855;DHT22;16733;48.738;9.106;2022-07-23T03:43:27;21.90;68.20
29855;DHT22;16733;48.738;9.106;2022-07-23T03:49:15;21.90;68.20
29855;DHT22;16733;48.738;9.106;2022-07-23T03:51:40;21.80;68.40
29855;DHT22;16733;48.738;9.106;2022-07-23T03:54:09;21.80;68.50
29855;DHT22;16733;48.738;9.106;2022-07-23T03:56:35;21.70;68.50
29855;DHT22;16733;48.738;9.106;2022-07-23T03:59:01;21.70;68.70
29855;DHT22;16733;48.738;9.106;2022-07-23T04:01:26;21.60;68.80
29855;DHT22;16733;48.738;9.106;2022-07-23T04:03:52;21.50;69.00
29855;DHT22;16733;48.738;9.106;2022-07-23T04:06:18;21.40;69.30
29855;DHT22;16733;48.738;9.106;2022-07-23T04:08:43;21.40;69.30
29855;DHT22;16733;48.738;9.106;2022-07-23T04:11:09;21.40;69.50
29855;DHT22;16733;48.738;9.106;2022-07-23T04:13:34;21.30;70.30
29855;DHT22;16733;48.738;9.106;2022-07-23T04:16:00;21.30;69.70
29855;DHT22;16733;48.738;9.106;2022-07-23T04:18:25;21.30;69.80
29855;DHT22;16733;48.738;9.106;2022-07-23T04:20:51;21.30;69.90
29855;DHT22;16733;48.738;9.106;2022-07-23T04:23:17;21.30;69.90
29855;DHT22;16733;48.738;9.106;2022-07-23T04:25:43;21.30;70.00
29855;DHT22;16733;48.738;9.106;2022-07-23T04:28:08;21.20;70.10
29855;DHT22;16733;48.738;9.106;2022-07-23T04:30:34;21.30;70.20
29855;DHT22;16733;48.738;9.106;2022-07-23T04:36:22;21.30;70.30
29855;DHT22;16733;48.738;9.106;2022-07-23T04:38:48;21.30;70.30
29855;DHT22;16733;48.738;9.106;2022-07-23T04:44:35;21.20;70.40
29855;DHT22;16733;48.738;9.106;2022-07-23T04:47:01;21.20;70.40
29855;DHT22;16733;48.738;9.106;2022-07-23T04:49:26;21.20;70.50
29855;DHT22;16733;48.738;9.106;2022-07-23T04:51:52;21.20;70.60
29855;DHT22;16733;48.738;9.106;2022-07-23T04:54:18;21.20;70.60
29855;DHT22;16733;48.738;9.106;2022-07-23T04:56:44;21.20;70.60
29855;DHT22;16733;48.738;9.106;2022-07-23T04:59:09;21.30;70.60
29855;DHT22;16733;48.738;9.106;2022-07-23T05:01:35;21.30;70.60
29855;DHT22;16733;48.738;9.106;2022-07-23T05:04:00;21.40;70.70
29855;DHT22;16733;48.738;9.106;2022-07-23T05:06:26;21.40;70.50
29855;DHT22;16733;48.738;9.106;2022-07-23T05:08:52;21.50;70.60
29855;DHT22;16733;48.738;9.106;2022-07-23T05:11:17;21.50;70.60
29855;DHT22;16733;48.738;9.106;2022-07-23T05:13:43;21.50;70.50
29855;DHT22;16733;48.738;9.106;2022-07-23T05:16:08;21.60;70.50
29855;DHT22;16733;48.738;9.106;2022-07-23T05:18:34;21.60;70.40
29855;DHT22;16733;48.738;9.106;2022-07-23T05:20:59;21.70;70.40
29855;DHT22;16733;48.738;9.106;2022-07-23T05:23:25;21.70;70.40
29855;DHT22;16733;48.738;9.106;2022-07-23T05:25:51;21.80;71.10
29855;DHT22;16733;48.738;9.106;2022-07-23T05:28:16;21.80;70.30
29855;DHT22;16733;48.738;9.106;2022-07-23T05:30:42;21.80;70.20
29855;DHT22;16733;48.738;9.106;2022-07-23T05:33:08;21.90;70.50
29855;DHT22;16733;48.738;9.106;2022-07-23T05:38:55;22.10;69.90
29855;DHT22;16733;48.738;9.106;2022-07-23T05:41:21;22.20;69.90
29855;DHT22;16733;48.738;9.106;2022-07-23T05:47:09;22.20;69.60
29855;DHT22;16733;48.738;9.106;2022-07-23T05:49:37;22.10;69.60
29855;DHT22;16733;48.738;9.106;2022-07-23T06:02:09;22.30;69.70
29855;DHT22;16733;48.738;9.106;2022-07-23T06:07:57;22.50;69.40
29855;DHT22;16733;48.738;9.106;2022-07-23T06:10:22;22.50;69.30
29855;DHT22;16733;48.738;9.106;2022-07-23T06:15:51;22.60;69.10
29855;DHT22;16733;48.738;9.106;2022-07-23T06:18:17;22.60;69.20
29855;DHT22;16733;48.738;9.106;2022-07-23T06:20:42;22.60;69.00
29855;DHT22;16733;48.738;9.106;2022-07-23T06:23:08;22.60;68.90
29855;DHT22;16733;48.738;9.106;2022-07-23T06:25:34;22.60;68.90
29855;DHT22;16733;48.738;9.106;2022-07-23T06:31:21;22.70;68.70
29855;DHT22;16733;48.738;9.106;2022-07-23T06:37:09;22.90;68.40
29855;DHT22;16733;48.738;9.106;2022-07-23T06:39:35;22.90;68.50
29855;DHT22;16733;48.738;9.106;2022-07-23T06:45:22;23.10;68.10
29855;DHT22;16733;48.738;9.106;2022-07-23T06:57:54;23.40;67.50
29855;DHT22;16733;48.738;9.106;2022-07-23T07:00:20;23.30;67.80
29855;DHT22;16733;48.738;9.106;2022-07-23T07:02:46;23.30;67.80
29855;DHT22;16733;48.738;9.106;2022-07-23T07:08:33;23.20;67.50
29855;DHT22;16733;48.738;9.106;2022-07-23T07:10:59;23.20;67.80
29855;DHT22;16733;48.738;9.106;2022-07-23T07:16:47;23.30;67.20
29855;DHT22;16733;48.738;9.106;2022-07-23T07:19:12;23.10;67.00
29855;DHT22;16733;48.738;9.106;2022-07-23T07:25:00;22.70;66.80
29855;DHT22;16733;48.738;9.106;2022-07-23T07:27:26;22.50;67.30
29855;DHT22;16733;48.738;9.106;2022-07-23T07:29:51;22.40;67.30
29855;DHT22;16733;48.738;9.106;2022-07-23T07:32:17;22.40;67.30
29855;DHT22;16733;48.738;9.106;2022-07-23T07:34:42;22.40;67.30
29855;DHT22;16733;48.738;9.106;2022-07-23T07:43:52;22.30;67.70
29855;DHT22;16733;48.738;9.106;2022-07-23T07:46:18;22.40;67.60
29855;DHT22;16733;48.738;9.106;2022-07-23T07:52:06;22.60;67.30
29855;DHT22;16733;48.738;9.106;2022-07-23T07:54:31;22.80;67.40
29855;DHT22;16733;48.738;9.106;2022-07-23T07:56:57;22.90;67.50
29855;DHT22;16733;48.738;9.106;2022-07-23T07:59:23;23.00;67.30
29855;DHT22;16733;48.738;9.106;2022-07-23T08:05:10;23.10;66.70
29855;DHT22;16733;48.738;9.106;2022-07-23T08:10:59;23.20;67.00
29855;DHT22;16733;48.738;9.106;2022-07-23T08:13:24;23.30;67.10
29855;DHT22;16733;48.738;9.106;2022-07-23T08:19:12;23.30;66.40
29855;DHT22;16733;48.738;9.106;2022-07-23T08:21:37;23.30;66.60
29855;DHT22;16733;48.738;9.106;2022-07-23T08:27:06;23.20;66.40
29855;DHT22;16733;48.738;9.106;2022-07-23T08:33:00;23.10;66.40
29855;DHT22;16733;48.738;9.106;2022-07-23T08:45:36;23.30;66.30
29855;DHT22;16733;48.738;9.106;2022-07-23T08:48:03;23.30;66.10
29855;DHT22;16733;48.738;9.106;2022-07-23T08:50:30;23.30;66.10
29855;DHT22;16733;48.738;9.106;2022-07-23T08:52:58;23.30;66.10
29855;DHT22;16733;48.738;9.106;2022-07-23T08:58:49;23.50;65.40
29855;DHT22;16733;48.738;9.106;2022-07-23T09:01:14;23.70;65.40
29855;DHT22;16733;48.738;9.106;2022-07-23T09:07:02;23.80;64.20
29855;DHT22;16733;48.738;9.106;2022-07-23T09:09:28;23.90;64.50
29855;DHT22;16733;48.738;9.106;2022-07-23T09:15:18;24.10;63.50
29855;DHT22;16733;48.738;9.106;2022-07-23T09:17:44;24.10;63.30
29855;DHT22;16733;48.738;9.106;2022-07-23T09:20:14;24.20;63.20
29855;DHT22;16733;48.738;9.106;2022-07-23T09:22:44;24.30;62.70
29855;DHT22;16733;48.738;9.106;2022-07-23T09:25:18;24.50;62.20
29855;DHT22;16733;48.738;9.106;2022-07-23T09:27:59;24.70;61.60
29855;DHT22;16733;48.738;9.106;2022-07-23T09:30:29;24.90;60.90
29855;DHT22;16733;48.738;9.106;2022-07-23T09:36:29;25.20;60.10
29855;DHT22;16733;48.738;9.106;2022-07-23T09:38:55;25.20;59.90
29855;DHT22;16733;48.738;9.106;2022-07-23T09:41:20;25.30;59.90
29855;DHT22;16733;48.738;9.106;2022-07-23T09:43:46;25.30;59.70
29855;DHT22;16733;48.738;9.106;2022-07-23T09:46:21;25.30;59.40
29855;DHT22;16733;48.738;9.106;2022-07-23T09:48:49;25.20;58.70
29855;DHT22;16733;48.738;9.106;2022-07-23T09:51:17;25.20;59.20
29855;DHT22;16733;48.738;9.106;2022-07-23T09:54:01;25.30;59.20
29855;DHT22;16733;48.738;9.106;2022-07-23T09:56:28;25.40;59.30
29855;DHT22;16733;48.738;9.106;2022-07-23T09:58:54;25.50;58.60
29855;DHT22;16733;48.738;9.106;2022-07-23T10:01:35;25.60;58.30
29855;DHT22;16733;48.738;9.106;2022-07-23T10:04:01;25.80;57.90
29855;DHT22;16733;48.738;9.106;2022-07-23T10:06:28;25.80;57.70
29855;DHT22;16733;48.738;9.106;2022-07-23T10:08:57;26.00;57.80
29855;DHT22;16733;48.738;9.106;2022-07-23T10:11:24;26.10;57.30
29855;DHT22;16733;48.738;9.106;2022-07-23T10:17:11;26.10;57.20
29855;DHT22;16733;48.738;9.106;2022-07-23T10:26:36;26.40;57.00
29855;DHT22;16733;48.738;9.106;2022-07-23T10:32:31;26.40;56.90
29855;DHT22;16733;48.738;9.106;2022-07-23T10:38:02;26.30;56.80
29855;DHT22;16733;48.738;9.106;2022-07-23T10:40:32;26.20;56.60
29855;DHT22;16733;48.738;9.106;2022-07-23T10:42:59;26.30;57.30
29855;DHT22;16733;48.738;9.106;2022-07-23T10:45:36;26.50;56.70
29855;DHT22;16733;48.738;9.106;2022-07-23T10:48:22;26.70;56.20
29855;DHT22;16733;48.738;9.106;2022-07-23T10:51:14;26.90;55.40
29855;DHT22;16733;48.738;9.106;2022-07-23T10:53:59;27.10;55.30
29855;DHT22;16733;48.738;9.106;2022-07-23T10:59:16;27.10;54.80
29855;DHT22;16733;48.738;9.106;2022-07-23T11:01:41;26.90;54.70
29855;DHT22;16733;48.738;9.106;2022-07-23T11:04:07;26.80;54.70
29855;DHT22;16733;48.738;9.106;2022-07-23T11:09:57;27.30;54.60
29855;DHT22;16733;48.738;9.106;2022-07-23T11:15:07;27.40;54.40
29855;DHT22;16733;48.738;9.106;2022-07-23T11:32:00;27.30;53.90
29855;DHT22;16733;48.738;9.106;2022-07-23T11:34:43;27.20;53.70
29855;DHT22;16733;48.738;9.106;2022-07-23T11:37:26;27.30;53.60
29855;DHT22;16733;48.738;9.106;2022-07-23T11:43:14;27.20;52.90
29855;DHT22;16733;48.738;9.106;2022-07-23T11:45:46;27.20;53.40
29855;DHT22;16733;48.738;9.106;2022-07-23T11:51:34;27.10;53.20
29855;DHT22;16733;48.738;9.106;2022-07-23T11:54:05;26.90;53.60
29855;DHT22;16733;48.738;9.106;2022-07-23T11:59:35;27.10;53.90
29855;DHT22;16733;48.738;9.106;2022-07-23T12:02:03;27.20;53.90
29855;DHT22;16733;48.738;9.106;2022-07-23T12:04:47;27.40;53.60
29855;DHT22;16733;48.738;9.106;2022-07-23T12:07:37;27.70;52.70
29855;DHT22;16733;48.738;9.106;2022-07-23T12:12:42;27.90;52.40
29855;DHT22;16733;48.738;9.106;2022-07-23T12:15:11;28.10;52.20
29855;DHT22;16733;48.738;9.106;2022-07-23T12:17:39;28.30;52.00
29855;DHT22;16733;48.738;9.106;2022-07-23T12:27:15;28.20;51.50
29855;DHT22;16733;48.738;9.106;2022-07-23T12:29:45;28.20;51.90
29855;DHT22;16733;48.738;9.106;2022-07-23T12:32:25;28.20;51.70
29855;DHT22;16733;48.738;9.106;2022-07-23T12:35:06;28.10;51.20
29855;DHT22;16733;48.738;9.106;2022-07-23T12:37:41;27.90;50.90
29855;DHT22;16733;48.738;9.106;2022-07-23T12:42:50;27.50;51.10
29855;DHT22;16733;48.738;9.106;2022-07-23T12:45:15;27.40;51.10
29855;DHT22;16733;48.738;9.106;2022-07-23T12:50:43;27.30;51.10
29855;DHT22;16733;48.738;9.106;2022-07-23T12:53:51;27.30;51.10
29855;DHT22;16733;48.738;9.106;2022-07-23T12:56:28;27.40;51.50
29855;DHT22;16733;48.738;9.106;2022-07-23T12:59:12;27.70;51.20
29855;DHT22;16733;48.738;9.106;2022-07-23T13:01:56;27.80;50.90
29855;DHT22;16733;48.738;9.106;2022-07-23T13:04:25;27.80;51.00
29855;DHT22;16733;48.738;9.106;2022-07-23T13:09:19;28.00;50.70
29855;DHT22;16733;48.738;9.106;2022-07-23T13:15:07;28.10;50.30
29855;DHT22;16733;48.738;9.106;2022-07-23T13:17:33;28.30;50.40
29855;DHT22;16733;48.738;9.106;2022-07-23T13:23:21;28.70;50.70
29855;DHT22;16733;48.738;9.106;2022-07-23T13:25:47;29.10;50.10
29855;DHT22;16733;48.738;9.106;2022-07-23T13:28:14;29.20;49.40
29855;DHT22;16733;48.738;9.106;2022-07-23T13:34:02;29.50;48.80
29855;DHT22;16733;48.738;9.106;2022-07-23T13:36:27;29.70;49.00
29855;DHT22;16733;48.738;9.106;2022-07-23T13:38:53;29.70;48.60
29855;DHT22;16733;48.738;9.106;2022-07-23T13:44:41;29.50;47.90
29855;DHT22;16733;48.738;9.106;2022-07-23T13:50:29;29.20;47.70
29855;DHT22;16733;48.738;9.106;2022-07-23T13:52:55;28.90;48.50
29855;DHT22;16733;48.738;9.106;2022-07-23T13:58:42;29.10;48.20
29855;DHT22;16733;48.738;9.106;2022-07-23T14:01:08;28.90;47.90
29855;DHT22;16733;48.738;9.106;2022-07-23T14:03:35;28.70;48.10
29855;DHT22;16733;48.738;9.106;2022-07-23T14:06:00;28.60;48.10
29855;DHT22;16733;48.738;9.106;2022-07-23T14:11:48;28.40;48.30
29855;DHT22;16733;48.738;9.106;2022-07-23T14:17:40;28.50;48.00
29855;DHT22;16733;48.738;9.106;2022-07-23T14:20:08;28.70;48.30
29855;DHT22;16733;48.738;9.106;2022-07-23T14:25:55;29.70;47.40
29855;DHT22;16733;48.738;9.106;2022-07-23T14:28:21;30.60;46.80
29855;DHT22;16733;48.738;9.106;2022-07-23T14:34:09;30.40;45.30
29855;DHT22;16733;48.738;9.106;2022-07-23T14:36:35;30.50;45.80
29855;DHT22;16733;48.738;9.106;2022-07-23T14:39:00;30.50;45.40
29855;DHT22;16733;48.738;9.106;2022-07-23T14:44:48;30.70;44.70
29855;DHT22;16733;48.738;9.106;2022-07-23T14:47:14;30.90;45.60
29855;DHT22;16733;48.738;9.106;2022-07-23T14:49:40;31.60;44.90
29855;DHT22;16733;48.738;9.106;2022-07-23T14:52:06;31.60;44.50
29855;DHT22;16733;48.738;9.106;2022-07-23T14:54:32;31.30;44.50
29855;DHT22;16733;48.738;9.106;2022-07-23T14:56:59;31.80;44.30
29855;DHT22;16733;48.738;9.106;2022-07-23T14:59:26;32.40;44.00
29855;DHT22;16733;48.738;9.106;2022-07-23T15:01:52;32.80;43.70
29855;DHT22;16733;48.738;9.106;2022-07-23T15:04:18;32.70;43.30
29855;DHT22;16733;48.738;9.106;2022-07-23T15:06:44;33.00;43.00
29855;DHT22;16733;48.738;9.106;2022-07-23T15:09:10;32.60;41.90
29855;DHT22;16733;48.738;9.106;2022-07-23T15:11:36;32.40;42.00
29855;DHT22;16733;48.738;9.106;2022-07-23T15:14:06;32.90;42.30
29855;DHT22;16733;48.738;9.106;2022-07-23T15:16:32;33.70;41.90
29855;DHT22;16733;48.738;9.106;2022-07-23T15:18:58;34.50;41.70
29855;DHT22;16733;48.738;9.106;2022-07-23T15:21:25;35.10;40.90
29855;DHT22;16733;48.738;9.106;2022-07-23T15:23:50;34.90;40.20
29855;DHT22;16733;48.738;9.106;2022-07-23T15:26:17;34.60;39.40
29855;DHT22;16733;48.738;9.106;2022-07-23T15:28:43;34.40;39.80
29855;DHT22;16733;48.738;9.106;2022-07-23T15:31:09;34.00;39.80
29855;DHT22;16733;48.738;9.106;2022-07-23T15:33:34;33.60;39.30
29855;DHT22;16733;48.738;9.106;2022-07-23T15:36:01;33.20;40.20
29855;DHT22;16733;48.738;9.106;2022-07-23T15:38:27;32.90;40.50
29855;DHT22;16733;48.738;9.106;2022-07-23T15:40:54;32.40;40.50
29855;DHT22;16733;48.738;9.106;2022-07-23T15:43:21;31.70;40.10
29855;DHT22;16733;48.738;9.106;2022-07-23T15:49:09;30.70;41.00
29855;DHT22;16733;48.738;9.106;2022-07-23T15:51:34;30.70;41.50
29855;DHT22;16733;48.738;9.106;2022-07-23T15:54:00;30.70;41.50
29855;DHT22;16733;48.738;9.106;2022-07-23T15:56:26;30.60;41.40
29855;DHT22;16733;48.738;9.106;2022-07-23T15:58:51;30.70;41.30
29855;DHT22;16733;48.738;9.106;2022-07-23T16:01:17;30.60;41.10
29855;DHT22;16733;48.738;9.106;2022-07-23T16:03:42;30.60;41.00
29855;DHT22;16733;48.738;9.106;2022-07-23T16:06:08;30.50;40.90
29855;DHT22;16733;48.738;9.106;2022-07-23T16:08:34;30.40;40.80
29855;DHT22;16733;48.738;9.106;2022-07-23T16:11:00;30.20;40.80
29855;DHT22;16733;48.738;9.106;2022-07-23T16:13:26;30.00;40.90
29855;DHT22;16733;48.738;9.106;2022-07-23T16:22:35;29.40;41.50
29855;DHT22;16733;48.738;9.106;2022-07-23T16:25:03;29.00;41.80
29855;DHT22;16733;48.738;9.106;2022-07-23T16:30:51;28.60;42.00
29855;DHT22;16733;48.738;9.106;2022-07-23T16:33:17;28.40;42.40
29855;DHT22;16733;48.738;9.106;2022-07-23T16:35:43;28.30;42.60
29855;DHT22;16733;48.738;9.106;2022-07-23T16:38:09;28.30;42.70
29855;DHT22;16733;48.738;9.106;2022-07-23T16:43:59;28.10;43.00
29855;DHT22;16733;48.738;9.106;2022-07-23T16:46:25;28.10;43.10
29855;DHT22;16733;48.738;9.106;2022-07-23T16:48:50;28.10;43.30
29855;DHT22;16733;48.738;9.106;2022-07-23T16:51:16;28.10;44.10
29855;DHT22;16733;48.738;9.106;2022-07-23T16:53:42;28.10;43.70
29855;DHT22;16733;48.738;9.106;2022-07-23T16:56:09;28.00;43.80
29855;DHT22;16733;48.738;9.106;2022-07-23T16:58:35;28.00;44.00
29855;DHT22;16733;48.738;9.106;2022-07-23T17:04:23;27.90;44.50
29855;DHT22;16733;48.738;9.106;2022-07-23T17:06:49;27.80;44.60
29855;DHT22;16733;48.738;9.106;2022-07-23T17:09:15;27.70;44.80
29855;DHT22;16733;48.738;9.106;2022-07-23T17:15:03;27.60;45.20
29855;DHT22;16733;48.738;9.106;2022-07-23T17:17:29;27.50;45.20
29855;DHT22;16733;48.738;9.106;2022-07-23T17:19:57;27.50;45.50
29855;DHT22;16733;48.738;9.106;2022-07-23T17:22:22;27.50;45.70
29855;DHT22;16733;48.738;9.106;2022-07-23T17:24:48;27.50;46.00
29855;DHT22;16733;48.738;9.106;2022-07-23T17:27:14;27.50;46.10
29855;DHT22;16733;48.738;9.106;2022-07-23T17:29:40;27.40;46.20
29855;DHT22;16733;48.738;9.106;2022-07-23T17:35:27;27.30;46.80
29855;DHT22;16733;48.738;9.106;2022-07-23T17:37:55;27.20;46.70
29855;DHT22;16733;48.738;9.106;2022-07-23T17:40:24;27.10;47.00
29855;DHT22;16733;48.738;9.106;2022-07-23T17:46:14;27.10;47.40
29855;DHT22;16733;48.738;9.106;2022-07-23T17:52:03;27.00;47.70
29855;DHT22;16733;48.738;9.106;2022-07-23T17:54:30;26.90;47.80
29855;DHT22;16733;48.738;9.106;2022-07-23T17:56:55;26.80;48.20
29855;DHT22;16733;48.738;9.106;2022-07-23T17:59:22;26.70;48.50
29855;DHT22;16733;48.738;9.106;2022-07-23T18:01:48;26.50;48.90
29855;DHT22;16733;48.738;9.106;2022-07-23T18:10:58;26.20;49.60
29855;DHT22;16733;48.738;9.106;2022-07-23T18:13:24;26.20;49.60
29855;DHT22;16733;48.738;9.106;2022-07-23T18:19:12;26.10;50.20
29855;DHT22;16733;48.738;9.106;2022-07-23T18:21:38;26.00;50.20
29855;DHT22;16733;48.738;9.106;2022-07-23T18:27:26;25.80;50.80
29855;DHT22;16733;48.738;9.106;2022-07-23T18:29:54;25.70;50.70
29855;DHT22;16733;48.738;9.106;2022-07-23T18:32:20;25.70;50.90
29855;DHT22;16733;48.738;9.106;2022-07-23T18:38:13;25.60;51.40
29855;DHT22;16733;48.738;9.106;2022-07-23T18:40:39;25.60;51.30
29855;DHT22;16733;48.738;9.106;2022-07-23T18:43:05;25.60;51.50
29855;DHT22;16733;48.738;9.106;2022-07-23T18:45:31;25.50;51.60
29855;DHT22;16733;48.738;9.106;2022-07-23T18:47:57;25.60;51.90
29855;DHT22;16733;48.738;9.106;2022-07-23T18:50:22;25.60;52.50
29855;DHT22;16733;48.738;9.106;2022-07-23T18:52:49;25.60;51.90
29855;DHT22;16733;48.738;9.106;2022-07-23T18:55:15;25.60;52.10
29855;DHT22;16733;48.738;9.106;2022-07-23T18:57:40;25.60;52.20
29855;DHT22;16733;48.738;9.106;2022-07-23T19:00:08;25.60;52.30
29855;DHT22;16733;48.738;9.106;2022-07-23T19:02:34;25.60;52.40
29855;DHT22;16733;48.738;9.106;2022-07-23T19:05:00;25.60;52.50
29855;DHT22;16733;48.738;9.106;2022-07-23T19:07:26;25.60;52.60
29855;DHT22;16733;48.738;9.106;2022-07-23T19:09:51;25.60;52.70
29855;DHT22;16733;48.738;9.106;2022-07-23T19:15:39;25.60;53.00
29855;DHT22;16733;48.738;9.106;2022-07-23T19:18:05;25.50;52.90
29855;DHT22;16733;48.738;9.106;2022-07-23T19:20:31;25.50;53.00
29855;DHT22;16733;48.738;9.106;2022-07-23T19:26:18;25.40;53.40
29855;DHT22;16733;48.738;9.106;2022-07-23T19:28:44;25.40;53.40
29855;DHT22;16733;48.738;9.106;2022-07-23T19:31:12;25.40;53.50
29855;DHT22;16733;48.738;9.106;2022-07-23T19:33:39;25.40;53.70
29855;DHT22;16733;48.738;9.106;2022-07-23T19:36:05;25.40;53.80
29855;DHT22;16733;48.738;9.106;2022-07-23T19:38:31;25.40;53.90
29855;DHT22;16733;48.738;9.106;2022-07-23T19:40:56;25.40;53.90
29855;DHT22;16733;48.738;9.106;2022-07-23T19:53:28;25.30;54.40
29855;DHT22;16733;48.738;9.106;2022-07-23T19:59:19;25.20;54.60
29855;DHT22;16733;48.738;9.106;2022-07-23T20:01:47;25.20;54.50
29855;DHT22;16733;48.738;9.106;2022-07-23T20:07:36;25.20;55.00
29855;DHT22;16733;48.738;9.106;2022-07-23T20:10:04;25.20;55.00
29855;DHT22;16733;48.738;9.106;2022-07-23T20:12:30;25.10;55.00
29855;DHT22;16733;48.738;9.106;2022-07-23T20:18:18;25.10;55.40
29855;DHT22;16733;48.738;9.106;2022-07-23T20:20:58;25.10;55.30
29855;DHT22;16733;48.738;9.106;2022-07-23T20:23:24;25.10;55.60
29855;DHT22;16733;48.738;9.106;2022-07-23T20:25:51;25.10;55.50
29855;DHT22;16733;48.738;9.106;2022-07-23T20:28:17;25.10;55.70
29855;DHT22;16733;48.738;9.106;2022-07-23T20:30:42;25.10;55.80
29855;DHT22;16733;48.738;9.106;2022-07-23T20:36:34;25.10;56.20
29855;DHT22;16733;48.738;9.106;2022-07-23T20:39:00;25.10;56.00
29855;DHT22;16733;48.738;9.106;2022-07-23T20:41:25;25.10;56.10
29855;DHT22;16733;48.738;9.106;2022-07-23T20:43:51;25.10;56.30
29855;DHT22;16733;48.738;9.106;2022-07-23T20:46:17;25.10;56.40
29855;DHT22;16733;48.738;9.106;2022-07-23T20:48:44;25.00;56.40
29855;DHT22;16733;48.738;9.106;2022-07-23T20:51:10;25.00;56.60
29855;DHT22;16733;48.738;9.106;2022-07-23T20:53:36;25.00;56.60
29855;DHT22;16733;48.738;9.106;2022-07-23T20:56:02;24.90;56.80
29855;DHT22;16733;48.738;9.106;2022-07-23T20:58:27;24.90;56.90
29855;DHT22;16733;48.738;9.106;2022-07-23T21:00:53;24.90;57.10
29855;DHT22;16733;48.738;9.106;2022-07-23T21:03:19;24.80;57.10
29855;DHT22;16733;48.738;9.106;2022-07-23T21:05:45;24.80;57.20
29855;DHT22;16733;48.738;9.106;2022-07-23T21:08:11;24.80;57.40
29855;DHT22;16733;48.738;9.106;2022-07-23T21:10:37;24.70;57.50
29855;DHT22;16733;48.738;9.106;2022-07-23T21:16:25;24.70;57.70
29855;DHT22;16733;48.738;9.106;2022-07-23T21:18:53;24.60;57.60
29855;DHT22;16733;48.738;9.106;2022-07-23T21:28:03;24.60;58.00
29855;DHT22;16733;48.738;9.106;2022-07-23T21:30:29;24.60;57.90
29855;DHT22;16733;48.738;9.106;2022-07-23T21:32:54;24.60;58.00
29855;DHT22;16733;48.738;9.106;2022-07-23T21:35:20;24.60;58.10
29855;DHT22;16733;48.738;9.106;2022-07-23T21:37:46;24.60;58.20
29855;DHT22;16733;48.738;9.106;2022-07-23T21:43:33;24.50;58.50
29855;DHT22;16733;48.738;9.106;2022-07-23T21:45:59;24.50;58.50
29855;DHT22;16733;48.738;9.106;2022-07-23T21:51:47;24.50;58.80